createdAt,value
2022-10-11T00:00:40.039Z,11.90
2022-10-11T00:03:04.040Z,11.15
2022-10-11T00:05:28.101Z,7.32
2022-10-11T00:07:53.866Z,5.32
2022-10-11T00:10:18.063Z,10.13
2022-10-11T00:12:41.647Z,5.90
2022-10-11T00:15:06.526Z,9.68
2022-10-11T00:17:30.115Z,11.82
2022-10-11T00:19:53.700Z,10.38
2022-10-11T00:22:17.547Z,9.30
2022-10-11T00:24:42.522Z,13.63
2022-10-11T00:27:06.191Z,11.50
2022-10-11T00:29:29.799Z,16.23
2022-10-11T00:31:53.312Z,12.80
2022-10-11T00:34:18.168Z,10.10
2022-10-11T00:36:41.713Z,9.40
2022-10-11T00:39:06.182Z,9.38
2022-10-11T00:41:31.362Z,10.55
2022-10-11T00:44:14.898Z,17.90
2022-10-11T00:46:38.791Z,7.88
2022-10-11T00:49:12.770Z,9.00
2022-10-11T00:51:45.688Z,13.73
2022-10-11T00:54:13.593Z,11.25
2022-10-11T00:56:41.589Z,11.63
2022-10-11T00:59:11.543Z,13.45
2022-10-11T01:01:35.370Z,11.40
2022-10-11T01:03:59.148Z,11.60
2022-10-11T01:06:22.697Z,11.68
2022-10-11T01:08:46.730Z,12.80
2022-10-11T01:11:13.587Z,13.35
2022-10-11T01:13:52.244Z,9.90
2022-10-11T01:16:21.455Z,9.38
2022-10-11T01:18:53.779Z,15.68
2022-10-11T01:21:33.670Z,18.90
2022-10-11T01:24:44.941Z,11.13
2022-10-11T01:27:34.219Z,15.25
2022-10-11T01:30:26.572Z,14.52
2022-10-11T01:33:01.351Z,11.18
2022-10-11T01:35:32.047Z,11.55
2022-10-11T01:38:01.843Z,16.38
2022-10-11T01:40:32.595Z,14.75
2022-10-11T01:42:58.456Z,18.08
2022-10-11T01:45:23.171Z,17.25
2022-10-11T01:47:48.763Z,19.63
2022-10-11T01:50:39.934Z,16.90
2022-10-11T01:53:22.425Z,18.85
2022-10-11T01:55:52.775Z,18.58
2022-10-11T01:58:30.063Z,14.98
2022-10-11T02:01:03.179Z,16.60
2022-10-11T02:03:38.458Z,17.92
2022-10-11T02:06:10.050Z,19.45
2022-10-11T02:08:39.962Z,15.75
2022-10-11T02:11:09.502Z,13.27
2022-10-11T02:13:39.396Z,15.13
2022-10-11T02:16:07.968Z,13.98
2022-10-11T02:18:39.227Z,20.75
2022-10-11T02:21:06.741Z,16.77
2022-10-11T02:23:36.364Z,21.13
2022-10-11T02:26:01.536Z,11.20
2022-10-11T02:28:30.918Z,18.95
2022-10-11T02:30:56.612Z,19.92
2022-10-11T02:33:26.947Z,19.27
2022-10-11T02:35:59.850Z,8.48
2022-10-11T02:38:29.236Z,16.20
2022-10-11T02:40:59.815Z,11.27
2022-10-11T02:43:32.003Z,15.80
2022-10-11T02:46:00.028Z,14.75
2022-10-11T02:48:25.155Z,10.27
2022-10-11T02:50:49.263Z,12.15
2022-10-11T02:53:14.240Z,13.10
2022-10-11T02:55:38.076Z,12.57
2022-10-11T02:58:01.755Z,14.80
2022-10-11T03:00:25.359Z,18.85
2022-10-11T03:02:48.961Z,14.68
2022-10-11T03:05:12.619Z,13.40
2022-10-11T03:07:36.227Z,10.65
2022-10-11T03:10:01.253Z,11.93
2022-10-11T03:12:24.847Z,17.92
2022-10-11T03:14:48.461Z,13.98
2022-10-11T03:17:35.140Z,11.05
2022-10-11T03:19:56.042Z,14.32
2022-10-11T03:22:19.583Z,13.60
2022-10-11T03:24:43.180Z,21.02
2022-10-11T03:27:08.141Z,17.63
2022-10-11T03:29:31.806Z,15.10
2022-10-11T03:31:55.416Z,17.70
2022-10-11T03:34:18.995Z,13.68
2022-10-11T03:36:42.527Z,12.32
2022-10-11T03:39:06.458Z,12.48
2022-10-11T03:41:29.987Z,18.35
2022-10-11T03:43:54.966Z,20.63
2022-10-11T03:46:18.507Z,21.23
2022-10-11T03:48:42.090Z,9.65
2022-10-11T03:51:06.025Z,10.65
2022-10-11T03:53:29.718Z,9.02
2022-10-11T03:55:54.832Z,8.50
2022-10-11T03:58:18.416Z,18.48
2022-10-11T04:00:43.436Z,24.45
2022-10-11T04:03:07.067Z,19.23
2022-10-11T04:05:30.589Z,23.42
2022-10-11T04:07:54.274Z,10.88
2022-10-11T04:10:17.995Z,30.50
2022-10-11T04:12:41.615Z,17.92
2022-10-11T04:15:06.316Z,18.48
2022-10-11T04:17:31.287Z,15.93
2022-10-11T04:19:54.791Z,12.02
2022-10-11T04:22:18.495Z,16.73
2022-10-11T04:24:42.006Z,13.73
2022-10-11T04:27:06.344Z,11.60
2022-10-11T04:29:32.564Z,23.23
2022-10-11T04:31:56.467Z,13.18
2022-10-11T04:34:21.403Z,10.73
2022-10-11T04:36:49.716Z,14.95
2022-10-11T04:39:13.897Z,17.50
2022-10-11T04:41:37.675Z,25.50
2022-10-11T04:44:01.646Z,15.77
2022-10-11T04:46:26.139Z,20.17
2022-10-11T04:48:49.670Z,17.75
2022-10-11T04:51:14.695Z,11.55
2022-10-11T04:53:38.219Z,19.15
2022-10-11T04:56:05.361Z,16.08
2022-10-11T04:58:29.670Z,23.90
2022-10-11T05:00:53.240Z,19.13
2022-10-11T05:03:16.829Z,16.07
2022-10-11T05:05:40.374Z,19.83
2022-10-11T05:08:05.562Z,22.77
2022-10-11T05:10:29.157Z,23.03
2022-10-11T05:12:52.686Z,22.63
2022-10-11T05:15:16.300Z,19.60
2022-10-11T05:17:39.843Z,20.30
2022-10-11T05:20:04.011Z,18.52
2022-10-11T05:22:27.851Z,27.67
2022-10-11T05:24:53.175Z,32.55
2022-10-11T05:27:16.969Z,30.40
2022-10-11T05:29:40.542Z,18.60
2022-10-11T05:32:04.100Z,18.13
2022-10-11T05:34:27.767Z,21.33
2022-10-11T05:36:51.279Z,27.60
2022-10-11T05:39:14.887Z,31.90
2022-10-11T05:41:39.787Z,28.20
2022-10-11T05:46:26.975Z,25.45
2022-10-11T05:48:50.559Z,30.60
2022-10-11T05:51:14.366Z,25.30
2022-10-11T05:53:38.834Z,44.57
2022-10-11T05:56:02.834Z,27.42
2022-10-11T05:58:28.496Z,26.75
2022-10-11T06:00:52.116Z,30.80
2022-10-11T06:03:17.146Z,25.70
2022-10-11T06:05:41.255Z,24.92
2022-10-11T06:08:06.687Z,24.25
2022-10-11T06:10:30.516Z,37.15
2022-10-11T06:12:54.278Z,29.40
2022-10-11T06:15:19.436Z,31.05
2022-10-11T06:17:43.238Z,28.02
2022-10-11T06:20:08.357Z,29.90
2022-10-11T06:22:32.034Z,26.77
2022-10-11T06:24:55.575Z,31.15
2022-10-11T06:27:19.167Z,27.88
2022-10-11T06:29:42.764Z,25.17
2022-10-11T06:32:07.864Z,23.08
2022-10-11T06:34:31.402Z,20.27
2022-10-11T06:36:55.087Z,23.10
2022-10-11T06:39:18.607Z,24.98
2022-10-11T06:41:42.306Z,19.30
2022-10-11T06:44:08.701Z,24.27
2022-10-11T06:46:34.485Z,22.77
2022-10-11T06:48:59.420Z,23.45
2022-10-11T06:51:24.364Z,18.65
2022-10-11T06:53:51.866Z,24.38
2022-10-11T06:56:15.484Z,28.17
2022-10-11T06:58:39.870Z,31.75
2022-10-11T07:01:05.164Z,26.88
2022-10-11T07:03:29.024Z,18.75
2022-10-11T07:05:54.001Z,19.77
2022-10-11T07:08:17.546Z,26.17
2022-10-11T07:10:41.132Z,25.77
2022-10-11T07:13:04.679Z,25.65
2022-10-11T07:15:28.322Z,20.17
2022-10-11T07:17:51.858Z,19.92
2022-10-11T07:20:15.455Z,19.30
2022-10-11T07:22:40.355Z,21.83
2022-10-11T07:25:04.487Z,23.33
2022-10-11T07:27:28.110Z,21.23
2022-10-11T07:29:51.966Z,33.08
2022-10-11T07:32:16.412Z,25.00
2022-10-11T07:34:40.186Z,21.38
2022-10-11T07:37:04.011Z,21.75
2022-10-11T07:39:30.952Z,18.65
2022-10-11T07:41:54.550Z,22.08
2022-10-11T07:44:18.122Z,15.52
2022-10-11T07:46:41.613Z,20.48
2022-10-11T07:49:05.283Z,18.52
2022-10-11T07:51:28.812Z,22.75
2022-10-11T07:53:54.666Z,24.95
2022-10-11T07:56:23.178Z,23.58
2022-10-11T07:58:50.918Z,14.10
2022-10-11T08:01:14.758Z,16.65
2022-10-11T08:03:39.423Z,17.88
2022-10-11T08:06:03.836Z,20.35
2022-10-11T08:08:27.718Z,16.70
2022-10-11T08:10:51.228Z,15.65
2022-10-11T08:13:16.204Z,18.63
2022-10-11T08:15:39.734Z,16.33
2022-10-11T08:18:03.368Z,13.10
2022-10-11T08:20:26.919Z,12.38
2022-10-11T08:22:50.519Z,16.30
2022-10-11T08:25:14.317Z,16.67
2022-10-11T08:27:37.923Z,18.25
2022-10-11T08:30:03.035Z,14.88
2022-10-11T08:32:26.698Z,14.55
2022-10-11T08:34:50.228Z,13.27
2022-10-11T08:37:13.875Z,13.63
2022-10-11T08:39:37.394Z,13.80
2022-10-11T08:42:05.814Z,12.80
2022-10-11T08:45:05.853Z,14.60
2022-10-11T08:47:28.998Z,11.07
2022-10-11T08:49:53.061Z,12.48
2022-10-11T08:52:24.813Z,11.27
2022-10-11T08:54:54.711Z,13.52
2022-10-11T08:57:22.380Z,16.98
2022-10-11T08:59:51.446Z,11.70
2022-10-11T09:02:49.188Z,8.25
2022-10-11T09:05:18.429Z,11.65
2022-10-11T09:07:55.215Z,11.77
2022-10-11T09:10:58.973Z,17.05
2022-10-11T09:13:42.362Z,11.65
2022-10-11T09:16:18.235Z,14.48
2022-10-11T09:19:08.459Z,13.45
2022-10-11T09:21:40.820Z,19.45
2022-10-11T09:24:37.806Z,12.05
2022-10-11T09:27:11.167Z,13.43
2022-10-11T09:29:54.240Z,11.75
2022-10-11T09:32:21.093Z,14.50
2022-10-11T09:34:46.140Z,11.75
2022-10-11T09:37:22.296Z,9.07
2022-10-11T09:39:52.427Z,11.65
2022-10-11T09:42:16.268Z,11.57
2022-10-11T09:44:42.771Z,9.57
2022-10-11T09:47:07.884Z,8.98
2022-10-11T09:49:37.247Z,10.98
2022-10-11T09:52:05.467Z,9.23
2022-10-11T09:54:44.716Z,11.25
2022-10-11T09:57:20.233Z,7.15
2022-10-11T09:59:44.247Z,14.70
2022-10-11T10:02:23.243Z,10.55
2022-10-11T10:05:04.467Z,11.65
2022-10-11T10:07:31.912Z,11.45
2022-10-11T10:09:55.468Z,9.60
2022-10-11T10:12:24.143Z,9.18
2022-10-11T10:14:57.528Z,11.20
2022-10-11T10:17:21.428Z,8.70
2022-10-11T10:19:52.527Z,11.25
2022-10-11T10:22:20.837Z,10.80
2022-10-11T10:24:45.991Z,7.20
2022-10-11T10:27:22.291Z,9.60
2022-10-11T10:30:01.733Z,6.85
2022-10-11T10:32:29.687Z,8.85
2022-10-11T10:35:05.040Z,8.02
2022-10-11T10:37:35.179Z,9.45
2022-10-11T10:40:08.445Z,11.48
2022-10-11T10:42:32.060Z,7.05
2022-10-11T10:44:58.743Z,10.27
2022-10-11T10:47:42.703Z,12.15
2022-10-11T10:50:14.271Z,10.20
2022-10-11T10:52:51.233Z,7.18
2022-10-11T10:55:26.130Z,11.02
2022-10-11T10:58:07.144Z,9.85
2022-10-11T11:00:39.626Z,10.82
2022-10-11T11:03:07.126Z,12.65
2022-10-11T11:05:44.884Z,10.32
2022-10-11T11:08:17.654Z,11.13
2022-10-11T11:10:52.701Z,7.85
2022-10-11T11:13:25.354Z,11.80
2022-10-11T11:15:55.791Z,9.88
2022-10-11T11:18:30.023Z,13.32
2022-10-11T11:21:10.083Z,6.68
2022-10-11T11:23:42.483Z,10.98
2022-10-11T11:26:17.094Z,9.68
2022-10-11T11:29:08.288Z,11.43
2022-10-11T11:31:56.070Z,8.15
2022-10-11T11:34:26.545Z,5.68
2022-10-11T11:36:55.861Z,15.80
2022-10-11T11:39:23.685Z,7.65
2022-10-11T11:41:54.571Z,10.57
2022-10-11T11:44:27.308Z,8.50
2022-10-11T11:47:00.320Z,12.15
2022-10-11T11:49:32.231Z,8.95
2022-10-11T11:51:56.341Z,14.30
2022-10-11T11:54:32.304Z,15.02
2022-10-11T11:57:02.783Z,10.30
2022-10-11T11:59:35.060Z,13.10
2022-10-11T12:02:25.118Z,10.10
2022-10-11T12:04:50.542Z,9.75
2022-10-11T12:07:17.781Z,6.57
2022-10-11T12:09:44.728Z,8.32
2022-10-11T12:12:28.879Z,8.32
2022-10-11T12:14:54.286Z,9.75
2022-10-11T12:17:23.299Z,10.35
2022-10-11T12:20:23.063Z,11.63
2022-10-11T12:23:00.310Z,8.35
2022-10-11T12:25:45.175Z,13.13
2022-10-11T12:29:03.813Z,9.75
2022-10-11T12:31:30.467Z,8.50
2022-10-11T12:34:18.996Z,10.02
2022-10-11T12:36:44.941Z,9.85
2022-10-11T12:39:52.371Z,8.95
2022-10-11T12:42:29.806Z,10.30
2022-10-11T12:45:35.626Z,14.32
2022-10-11T12:48:35.894Z,10.88
2022-10-11T12:51:21.619Z,9.70
2022-10-11T12:54:33.299Z,10.30
2022-10-11T12:57:31.766Z,8.18
2022-10-11T12:59:55.560Z,7.30
2022-10-11T13:02:30.517Z,7.63
2022-10-11T13:04:54.337Z,12.32
2022-10-11T13:07:23.643Z,10.70
2022-10-11T13:09:49.214Z,10.93
2022-10-11T13:12:17.907Z,10.23
2022-10-11T13:14:47.049Z,7.18
2022-10-11T13:17:18.553Z,13.13
2022-10-11T13:19:43.911Z,7.28
2022-10-11T13:22:19.811Z,11.45
2022-10-11T13:24:43.987Z,9.80
2022-10-11T13:27:08.952Z,7.72
2022-10-11T13:29:36.212Z,8.27
2022-10-11T13:32:01.147Z,9.80
2022-10-11T13:34:25.690Z,8.20
2022-10-11T13:36:56.191Z,10.80
2022-10-11T13:39:31.373Z,9.80
2022-10-11T13:41:55.396Z,6.90
2022-10-11T13:44:19.067Z,9.55
2022-10-11T13:46:42.771Z,8.73
2022-10-11T13:49:37.120Z,8.00
2022-10-11T13:52:06.954Z,8.70
2022-10-11T13:55:00.321Z,10.05
2022-10-11T13:57:35.248Z,9.00
2022-10-11T13:59:59.098Z,10.63
2022-10-11T14:02:25.063Z,7.57
2022-10-11T14:04:49.970Z,7.13
2022-10-11T14:07:26.341Z,7.68
2022-10-11T14:09:49.920Z,9.05
2022-10-11T14:12:33.565Z,7.32
2022-10-11T14:14:57.430Z,8.77
2022-10-11T14:17:25.144Z,11.25
2022-10-11T14:20:11.194Z,9.20
2022-10-11T14:22:36.632Z,8.75
2022-10-11T14:25:00.145Z,8.02
2022-10-11T14:27:25.687Z,11.07
2022-10-11T14:30:19.893Z,9.38
2022-10-11T14:32:36.462Z,9.32
2022-10-11T14:35:00.319Z,9.43
2022-10-11T14:37:24.528Z,7.45
2022-10-11T14:39:50.331Z,10.18
2022-10-11T14:42:13.895Z,8.82
2022-10-11T14:44:37.544Z,8.07
2022-10-11T14:47:01.477Z,8.18
2022-10-11T14:49:27.594Z,8.70
2022-10-11T14:51:53.057Z,10.43
2022-10-11T14:54:19.143Z,12.68
2022-10-11T14:56:44.081Z,16.42
2022-10-11T14:59:08.200Z,13.10
2022-10-11T15:01:31.896Z,9.35
2022-10-11T15:03:55.440Z,9.77
2022-10-11T15:06:22.341Z,8.27
2022-10-11T15:08:45.898Z,8.90
2022-10-11T15:11:11.442Z,13.77
2022-10-11T15:13:36.454Z,16.35
2022-10-11T15:16:00.115Z,14.23
2022-10-11T15:18:23.680Z,14.73
2022-10-11T15:20:48.313Z,19.52
2022-10-11T15:23:12.631Z,18.17
2022-10-11T15:25:37.634Z,14.88
2022-10-11T15:28:01.450Z,10.27
2022-10-11T15:30:29.918Z,23.05
2022-10-11T15:32:54.568Z,18.42
2022-10-11T15:35:19.068Z,15.25
2022-10-11T15:37:43.226Z,16.88
2022-10-11T15:40:17.652Z,13.57
2022-10-11T15:42:41.484Z,9.38
2022-10-11T15:45:05.754Z,11.57
2022-10-11T15:47:30.774Z,6.85
2022-10-11T15:49:54.341Z,6.97
2022-10-11T15:52:17.911Z,9.73
2022-10-11T15:54:41.460Z,8.88
2022-10-11T15:57:05.208Z,8.93
2022-10-11T15:59:28.743Z,12.93
2022-10-11T16:01:52.348Z,9.60
2022-10-11T16:04:17.367Z,7.45
2022-10-11T16:06:41.419Z,9.13
2022-10-11T16:09:05.395Z,10.13
2022-10-11T16:11:29.071Z,9.60
2022-10-11T16:13:52.584Z,9.73
2022-10-11T16:16:16.152Z,8.23
2022-10-11T16:18:40.344Z,11.57
2022-10-11T16:21:09.024Z,15.05
2022-10-11T16:23:32.944Z,13.93
2022-10-11T16:26:01.531Z,13.55
2022-10-11T16:28:25.163Z,13.77
2022-10-11T16:30:48.727Z,12.82
2022-10-11T16:33:12.352Z,14.60
2022-10-11T16:35:35.927Z,14.73
2022-10-11T16:38:01.803Z,11.57
2022-10-11T16:40:27.712Z,8.38
2022-10-11T16:42:51.804Z,11.10
2022-10-11T16:45:16.908Z,12.80
2022-10-11T16:47:40.792Z,16.88
2022-10-11T16:50:05.512Z,11.15
2022-10-11T16:52:29.223Z,15.77
2022-10-11T16:54:54.230Z,16.60
2022-10-11T16:57:19.914Z,13.48
2022-10-11T16:59:43.821Z,15.48
2022-10-11T17:02:09.903Z,13.57
2022-10-11T17:04:34.081Z,15.00
2022-10-11T17:06:58.231Z,10.70
2022-10-11T17:09:21.865Z,15.30
2022-10-11T17:11:46.860Z,14.40
2022-10-11T17:14:13.305Z,16.92
2022-10-11T17:16:37.323Z,13.20
2022-10-11T17:19:00.879Z,18.33
2022-10-11T17:21:25.226Z,20.58
2022-10-11T17:23:49.613Z,13.48
2022-10-11T17:26:18.589Z,16.55
2022-10-11T17:28:43.991Z,14.80
2022-10-11T17:31:09.307Z,19.88
2022-10-11T17:33:33.806Z,14.30
2022-10-11T17:35:59.681Z,14.98
2022-10-11T17:38:27.364Z,16.02
2022-10-11T17:41:01.431Z,25.05
2022-10-11T17:43:25.091Z,17.25
2022-10-11T17:45:57.126Z,20.45
2022-10-11T17:48:20.740Z,21.60
2022-10-11T17:50:49.648Z,25.65
2022-10-11T17:53:14.172Z,18.55
2022-10-11T17:55:43.271Z,18.55
2022-10-11T17:58:06.814Z,16.30
2022-10-11T18:00:30.480Z,21.77
2022-10-11T18:02:57.355Z,23.67
2022-10-11T18:05:21.005Z,18.10
2022-10-11T18:07:44.564Z,19.33
2022-10-11T18:10:09.613Z,13.23
2022-10-11T18:12:33.170Z,17.02
2022-10-11T18:14:56.726Z,15.25
2022-10-11T18:17:20.464Z,20.50
2022-10-11T18:19:45.386Z,24.50
2022-10-11T18:22:09.140Z,22.08
2022-10-11T18:24:32.779Z,21.10
2022-10-11T18:26:56.337Z,22.63
2022-10-11T18:29:19.949Z,28.20
2022-10-11T18:31:43.765Z,30.90
2022-10-11T18:34:10.692Z,23.73
2022-10-11T18:36:35.763Z,20.92
2022-10-11T18:39:02.302Z,22.60
2022-10-11T18:41:30.732Z,23.15
2022-10-11T18:43:56.938Z,22.98
2022-10-11T18:46:21.639Z,19.63
2022-10-11T18:48:47.463Z,23.35
2022-10-11T18:51:15.455Z,20.38
2022-10-11T18:53:40.412Z,15.77
2022-10-11T18:56:06.581Z,22.52
2022-10-11T18:58:31.327Z,25.02
2022-10-11T19:00:54.926Z,19.17
2022-10-11T19:03:18.504Z,24.92
2022-10-11T19:05:42.376Z,18.38
2022-10-11T19:08:06.867Z,20.80
2022-10-11T19:10:32.908Z,19.55
2022-10-11T19:12:56.475Z,18.70
2022-10-11T19:15:20.151Z,15.85
2022-10-11T19:17:43.831Z,19.02
2022-10-11T19:20:09.349Z,16.58
2022-10-11T19:22:33.323Z,20.17
2022-10-11T19:24:57.894Z,20.40
2022-10-11T19:27:23.685Z,17.17
2022-10-11T19:29:47.418Z,16.38
2022-10-11T19:32:10.966Z,18.77
2022-10-11T19:34:34.658Z,15.68
2022-10-11T19:37:00.725Z,17.73
2022-10-11T19:39:25.681Z,17.92
2022-10-11T19:41:50.604Z,20.52
2022-10-11T19:44:16.391Z,17.25
2022-10-11T19:46:55.921Z,20.65
2022-10-11T19:49:22.515Z,18.33
2022-10-11T19:51:46.625Z,16.83
2022-10-11T19:54:13.834Z,20.77
2022-10-11T19:56:37.670Z,15.68
2022-10-11T19:59:03.124Z,16.13
2022-10-11T20:01:31.816Z,14.43
2022-10-11T20:04:27.437Z,25.30
2022-10-11T20:06:56.192Z,19.77
2022-10-11T20:09:35.769Z,17.08
2022-10-11T20:12:00.631Z,16.57
2022-10-11T20:14:27.032Z,24.60
2022-10-11T20:16:55.836Z,18.90
2022-10-11T20:19:25.038Z,21.70
2022-10-11T20:21:53.926Z,16.17
2022-10-11T20:24:23.785Z,18.90
2022-10-11T20:26:47.450Z,15.43
2022-10-11T20:29:11.015Z,15.75
2022-10-11T20:31:38.195Z,15.97
2022-10-11T20:34:07.387Z,15.15
2022-10-11T20:36:32.182Z,14.95
2022-10-11T20:38:55.764Z,12.93
2022-10-11T20:41:21.594Z,14.00
2022-10-11T20:43:46.135Z,17.02
2022-10-11T20:46:13.239Z,15.63
2022-10-11T20:48:40.566Z,14.20
2022-10-11T20:51:07.722Z,14.70
2022-10-11T20:53:31.772Z,19.63
2022-10-11T20:55:56.109Z,20.83
2022-10-11T20:58:20.168Z,20.00
2022-10-11T21:00:44.580Z,20.77
2022-10-11T21:03:08.237Z,19.08
2022-10-11T21:05:31.834Z,17.37
2022-10-11T21:07:56.739Z,17.43
2022-10-11T21:10:20.331Z,16.60
2022-10-11T21:12:43.844Z,16.40
2022-10-11T21:15:08.971Z,18.30
2022-10-11T21:17:32.503Z,17.38
2022-10-11T21:19:56.106Z,16.40
2022-10-11T21:22:19.718Z,13.83
2022-10-11T21:24:44.683Z,25.17
2022-10-11T21:27:08.799Z,25.43
2022-10-11T21:29:32.368Z,11.87
2022-10-11T21:31:55.894Z,15.40
2022-10-11T21:34:19.511Z,12.33
2022-10-11T21:36:43.523Z,17.03
2022-10-11T21:39:07.099Z,14.67
2022-10-11T21:41:33.950Z,12.47
2022-10-11T21:43:58.147Z,16.17
2022-10-11T21:46:36.982Z,16.43
2022-10-11T21:49:08.647Z,14.77
2022-10-11T21:51:33.720Z,18.03
2022-10-11T21:54:00.288Z,16.37
2022-10-11T21:56:23.982Z,16.43
2022-10-11T21:58:50.581Z,21.20
2022-10-11T22:01:14.114Z,19.90
2022-10-11T22:03:37.731Z,16.10
2022-10-11T22:06:03.666Z,16.50
2022-10-11T22:08:27.219Z,14.67
2022-10-11T22:10:56.587Z,13.93
2022-10-11T22:13:20.186Z,15.83
2022-10-11T22:15:45.103Z,14.37
2022-10-11T22:18:08.651Z,9.07
2022-10-11T22:20:34.627Z,20.53
2022-10-11T22:22:58.232Z,17.20
2022-10-11T22:25:21.848Z,12.37
2022-10-11T22:27:45.514Z,17.07
2022-10-11T22:30:10.772Z,17.77
2022-10-11T22:32:36.054Z,14.20
2022-10-11T22:34:59.760Z,18.10
2022-10-11T22:37:23.334Z,11.87
2022-10-11T22:39:46.849Z,14.93
2022-10-11T22:42:10.452Z,13.17
2022-10-11T22:44:34.011Z,12.90
2022-10-11T22:46:57.552Z,17.70
2022-10-11T22:49:22.527Z,21.30
2022-10-11T22:51:46.157Z,16.80
2022-10-11T22:54:09.743Z,14.30
2022-10-11T22:56:33.360Z,13.60
2022-10-11T22:58:56.888Z,17.20
2022-10-11T23:01:20.455Z,17.83
2022-10-11T23:03:44.447Z,21.10
2022-10-11T23:06:10.318Z,13.80
2022-10-11T23:08:34.114Z,13.40
2022-10-11T23:10:57.704Z,12.67
2022-10-11T23:13:21.660Z,13.93
2022-10-11T23:15:45.263Z,16.70
2022-10-11T23:18:08.842Z,10.20
2022-10-11T23:20:32.484Z,14.90
2022-10-11T23:22:57.383Z,15.43
2022-10-11T23:25:20.990Z,15.17
2022-10-11T23:27:44.515Z,15.53
2022-10-11T23:30:10.258Z,11.80
2022-10-11T23:32:34.227Z,13.43
2022-10-11T23:34:57.786Z,11.27
2022-10-11T23:37:21.311Z,17.23
2022-10-11T23:39:46.383Z,14.60
2022-10-11T23:42:09.986Z,18.87
2022-10-11T23:44:33.558Z,12.43
2022-10-11T23:46:57.049Z,13.53
2022-10-11T23:49:20.610Z,12.03
2022-10-11T23:51:44.196Z,13.10
2022-10-11T23:54:08.311Z,14.87
2022-10-11T23:56:33.265Z,13.10
2022-10-11T23:58:56.959Z,11.90
